Space — ZCTI8 — position and weather

sailwx.info

Track history (hours):
 
Tides and Currents Weather Stations Pressure Air Temp Water Temp Dewpoint Dewpoint Depression Visibility Wind Speed Wind Dir Waves Ship Positions

Space

Last reported at 2014-Jul-18 18:33 UTC. Time now 2014-Jul-22 09:19 UTC.
Position N 41°26' E 008°53'.

Length 45 m; draft 2.7 m.

Type: Pleasure craft. MMSI: 319917000.

Date/timePositionNaut miles runAvg speedWind from/ knotsBaromVisibWave heightAir tempDewpointWater temp
2014-Jul-18 18:33N 41°26' E 008°53'9 0.9
2014-Jul-18 09:32N 41°33' E 008°46'5 5.4
2014-Jul-18 08:33N 41°38' E 008°49'27 6.8
2014-Jul-18 04:30N 41°60' E 008°26'1212.8
2014-Jul-18 03:33N 42°11' E 008°19'1212.4
2014-Jul-18 02:33N 42°22' E 008°12'1312.5
2014-Jul-18 01:32N 42°34' E 008°06'1312.8
2014-Jul-18 00:33N 42°45' E 007°59'1312.8
2014-Jul-17 23:33N 42°57' E 007°51'1312.9
2014-Jul-17 22:33N 43°08' E 007°43'1312.9
2014-Jul-17 21:32N 43°20' E 007°35'1312.9
2014-Jul-17 20:33N 43°32' E 007°27'11 9.9
2014-Jul-17 19:25N 43°41' E 007°21'0 0.0
2014-Jul-17 17:28N 43°41' E 007°21'0 0.0
2014-Jul-17 16:19N 43°41' E 007°20'0 0.0
2014-Jul-17 14:07N 43°41' E 007°20'0 0.0
2014-Jul-17 13:31N 43°41' E 007°20'1 0.2
2014-Jul-17 10:33N 43°41' E 007°21'3 2.7
2014-Jul-17 09:33N 43°42' E 007°17'0 0.0
2014-Jul-17 08:33N 43°42' E 007°17'0 0.0
2014-Jul-17 07:33N 43°42' E 007°17'0 0.0
2014-Jul-17 06:34N 43°42' E 007°17'0 0.0
2014-Jul-17 05:33N 43°42' E 007°17'0 0.0
2014-Jul-16 18:33N 43°42' E 007°17'0 0.0
2014-Jul-16 17:34N 43°42' E 007°17'0 0.0
2014-Jul-16 16:33N 43°42' E 007°17'0 0.0
2014-Jul-16 15:33N 43°42' E 007°17'0 0.0
2014-Jul-16 14:33N 43°42' E 007°17'6 6.3
2014-Jul-16 13:34N 43°36' E 007°13'1212.0
2014-Jul-16 12:32N 43°28' E 007°01'1312.6
2014-Jul-16 11:33N 43°21' E 006°47'6 6.5
2014-Jul-16 10:33N 43°16' E 006°40'0 0.1
2014-Jul-16 09:31N 43°16' E 006°40'0 0.0
2014-Jul-16 08:31N 43°16' E 006°40'0 0.0
2014-Jul-16 07:31N 43°16' E 006°40'0 0.0
2014-Jul-16 06:28N 43°16' E 006°40'0 0.0
2014-Jul-16 05:31N 43°16' E 006°40'0 0.0
2014-Jul-16 04:31N 43°16' E 006°40'0 0.0
2014-Jul-16 03:31N 43°16' E 006°40'0 0.0
2014-Jul-16 02:25N 43°16' E 006°40'0 0.0
2014-Jul-16 01:25N 43°16' E 006°40'0 0.0
2014-Jul-16 00:31N 43°16' E 006°40'0 0.0
2014-Jul-15 23:25N 43°16' E 006°40'0 0.0
2014-Jul-15 22:31N 43°16' E 006°40'0 0.0
2014-Jul-15 21:25N 43°16' E 006°40'0 0.0
2014-Jul-15 20:25N 43°16' E 006°40'0 0.0
2014-Jul-15 19:07N 43°16' E 006°40'0 0.0
2014-Jul-15 18:25N 43°16' E 006°40'0 0.0
2014-Jul-15 17:25N 43°16' E 006°40'0 0.0
2014-Jul-15 16:25N 43°16' E 006°40'0 0.0
2014-Jul-15 15:31N 43°16' E 006°40'0 0.0
2014-Jul-15 13:07N 43°16' E 006°40'0 0.0
2014-Jul-15 12:13N 43°16' E 006°40'0 0.1
2014-Jul-15 11:31N 43°16' E 006°40'0 0.0
2014-Jul-15 10:25N 43°16' E 006°40'0 0.0
2014-Jul-15 09:31N 43°16' E 006°40'0 0.0
2014-Jul-15 08:31N 43°16' E 006°40'0 0.0
2014-Jul-15 07:31N 43°16' E 006°40'0 0.0
2014-Jul-15 06:31N 43°16' E 006°40'0 0.0
2014-Jul-15 05:31N 43°16' E 006°40'0 0.0
2014-Jul-15 04:31N 43°16' E 006°40'0 0.0
2014-Jul-15 03:28N 43°16' E 006°40'0 0.0
2014-Jul-15 02:28N 43°16' E 006°40'0 0.0
2014-Jul-15 01:31N 43°16' E 006°40'0 0.0
2014-Jul-15 00:31N 43°16' E 006°40'0 0.0
2014-Jul-14 23:31N 43°16' E 006°40'0 0.0
2014-Jul-14 22:31N 43°16' E 006°40'0 0.0
2014-Jul-14 21:31N 43°16' E 006°40'0 0.0
2014-Jul-14 20:28N 43°16' E 006°40'0 0.0
2014-Jul-14 19:28N 43°16' E 006°40'0 0.0
2014-Jul-14 18:25N 43°16' E 006°40'2 2.5
2014-Jul-14 17:33N 43°15' E 006°41'1 1.3
2014-Jul-14 16:29N 43°14' E 006°40'1 0.6
2014-Jul-14 15:25N 43°13' E 006°40'0 0.0
2014-Jul-14 14:31N 43°13' E 006°40'0 0.0
2014-Jul-14 13:28N 43°13' E 006°40'0 0.0
2014-Jul-14 12:25N 43°13' E 006°40'0 0.2
2014-Jul-14 11:16N 43°13' E 006°40'4 5.3
2014-Jul-14 10:33N 43°17' E 006°40'1 0.6
2014-Jul-14 09:17N 43°16' E 006°40'0 0.0
2014-Jul-14 08:26N 43°16' E 006°40'0 0.0
2014-Jul-14 07:29N 43°16' E 006°40'0 0.0
2014-Jul-14 06:23N 43°16' E 006°40'0 0.0
2014-Jul-14 05:32N 43°16' E 006°40'0 0.0
2014-Jul-14 04:32N 43°16' E 006°40'0 0.0
2014-Jul-14 03:32N 43°16' E 006°40'0 0.0
2014-Jul-14 02:26N 43°16' E 006°40'0 0.0
2014-Jul-14 01:32N 43°16' E 006°40'0 0.0
2014-Jul-14 00:32N 43°16' E 006°40'0 0.0
2014-Jul-13 23:32N 43°16' E 006°40'0 0.0
2014-Jul-13 22:32N 43°16' E 006°40'0 0.0
2014-Jul-13 21:32N 43°16' E 006°40'0 0.0
2014-Jul-13 20:32N 43°16' E 006°40'0 0.0
2014-Jul-13 19:32N 43°16' E 006°40'0 0.0
2014-Jul-13 18:32N 43°16' E 006°40'0 0.0
2014-Jul-13 17:32N 43°16' E 006°40'0 0.0
2014-Jul-13 16:32N 43°16' E 006°40'2 2.4
2014-Jul-13 15:29N 43°14' E 006°40'0 0.0
2014-Jul-13 14:32N 43°14' E 006°40'0 0.0
2014-Jul-13 13:29N 43°14' E 006°40'0 0.0
2014-Jul-13 12:29N 43°14' E 006°40'0 0.0
2014-Jul-13 11:26N 43°14' E 006°40'3 3.1
2014-Jul-13 10:33N 43°16' E 006°43'2 2.3
2014-Jul-13 09:32N 43°16' E 006°40'0 0.0
2014-Jul-13 08:32N 43°16' E 006°40'0 0.0
2014-Jul-13 07:32N 43°16' E 006°40'0 0.0
2014-Jul-13 06:26N 43°16' E 006°40'0 0.0
2014-Jul-13 05:32N 43°16' E 006°40'0 0.0
2014-Jul-13 04:29N 43°16' E 006°40'0 0.0
2014-Jul-13 03:32N 43°16' E 006°40'0 0.0
2014-Jul-13 02:32N 43°16' E 006°40'0 0.0
2014-Jul-13 01:32N 43°16' E 006°40'0 0.0
2014-Jul-13 00:32N 43°16' E 006°40'0 0.0
2014-Jul-12 23:32N 43°16' E 006°40'0 0.0
2014-Jul-12 22:32N 43°16' E 006°40'0 0.0
2014-Jul-12 21:29N 43°16' E 006°40'0 0.0
2014-Jul-12 20:32N 43°16' E 006°40'0 0.0
2014-Jul-12 19:32N 43°16' E 006°40'0 0.0
2014-Jul-12 18:33N 43°16' E 006°40'0 0.0
2014-Jul-12 17:32N 43°16' E 006°40'0 0.0
2014-Jul-12 16:33N 43°16' E 006°40'0 0.0
2014-Jul-12 15:32N 43°16' E 006°40'2 1.5
2014-Jul-12 14:33N 43°17' E 006°42'3 0.5
2014-Jul-12 09:18N 43°14' E 006°40'2 2.1
2014-Jul-12 08:27N 43°16' E 006°40'0 0.0
2014-Jul-12 07:30N 43°16' E 006°40'0 0.0
2014-Jul-12 06:33N 43°16' E 006°40'0 0.0
2014-Jul-12 05:33N 43°16' E 006°40'0 0.0
2014-Jul-12 04:32N 43°16' E 006°40'0 0.0
2014-Jul-12 03:33N 43°16' E 006°40'0 0.0
2014-Jul-12 02:32N 43°16' E 006°40'0 0.0
2014-Jul-12 01:33N 43°16' E 006°40'0 0.0
2014-Jul-12 00:33N 43°16' E 006°40'0 0.0
2014-Jul-11 23:32N 43°16' E 006°40'0 0.0
2014-Jul-11 22:32N 43°16' E 006°40'0 0.0
2014-Jul-11 21:32N 43°16' E 006°40'0 0.0
2014-Jul-11 20:32N 43°16' E 006°40'0 0.0
2014-Jul-11 19:32N 43°16' E 006°40'0 0.0
2014-Jul-11 18:33N 43°16' E 006°40'0 0.0
2014-Jul-11 17:32N 43°16' E 006°40'0 0.0
2014-Jul-11 16:32N 43°16' E 006°40'3 2.7
2014-Jul-11 15:33N 43°18' E 006°42'1413.6
2014-Jul-11 14:34N 43°26' E 006°58'1312.9
2014-Jul-11 13:33N 43°35' E 007°10'4 3.4
2014-Jul-11 12:26N 43°39' E 007°11'0 0.0
2014-Jul-11 11:32N 43°39' E 007°11'0 0.0
2014-Jul-11 10:32N 43°39' E 007°11'0 0.0
2014-Jul-11 09:33N 43°39' E 007°11'4 3.8
2014-Jul-11 08:30N 43°36' E 007°08'0 0.0
2014-Jul-11 07:30N 43°36' E 007°08'6 6.2
2014-Jul-11 06:33N 43°38' E 007°15'4 1.8
2014-Jul-11 04:14N 43°42' E 007°19'0 0.0
2014-Jul-11 03:26N 43°42' E 007°19'0 0.0
2014-Jul-11 02:26N 43°42' E 007°19'0 0.0
2014-Jul-11 00:20N 43°42' E 007°19'0 0.0
2014-Jul-10 23:32N 43°42' E 007°19'0 0.0
2014-Jul-10 22:32N 43°42' E 007°19'0 0.0
2014-Jul-10 20:32N 43°42' E 007°19'0 0.0
2014-Jul-10 19:32N 43°42' E 007°19'0 0.0
2014-Jul-10 17:32N 43°42' E 007°19'0 0.0
2014-Jul-10 16:26N 43°42' E 007°19'0 0.0
2014-Jul-10 15:29N 43°42' E 007°19'0 0.0
2014-Jul-10 13:08N 43°42' E 007°19'0 0.0
2014-Jul-10 12:30N 43°42' E 007°19'0 0.0
2014-Jul-10 11:33N 43°42' E 007°19'0 0.0
2014-Jul-10 10:33N 43°42' E 007°19'1 1.1
2014-Jul-10 09:28N 43°42' E 007°17'0 0.0
2014-Jul-10 08:28N 43°42' E 007°17'0 0.0
2014-Jul-10 07:28N 43°42' E 007°17'0 0.0
2014-Jul-10 06:28N 43°42' E 007°17'0 0.0
2014-Jul-10 05:28N 43°42' E 007°17'0 0.0
2014-Jul-10 04:22N 43°42' E 007°17'0 0.0
2014-Jul-10 03:16N 43°42' E 007°17'0 0.0
2014-Jul-10 02:22N 43°42' E 007°17'0 0.0
2014-Jul-10 01:28N 43°42' E 007°17'0 0.0
2014-Jul-10 00:22N 43°42' E 007°17'0 0.0
2014-Jul-09 23:28N 43°42' E 007°17'0 0.0
2014-Jul-09 22:22N 43°42' E 007°17'0 0.0
2014-Jul-09 21:28N 43°42' E 007°17'0 0.0
2014-Jul-09 20:28N 43°42' E 007°17'0 0.0
2014-Jul-09 19:28N 43°42' E 007°17'0 0.0
2014-Jul-09 18:22N 43°42' E 007°17'0 0.0
2014-Jul-09 17:28N 43°42' E 007°17'0 0.0
2014-Jul-09 16:28N 43°42' E 007°17'0 0.0
2014-Jul-09 10:28N 43°42' E 007°17'0 0.0
2014-Jul-09 09:22N 43°42' E 007°17'0 0.0
2014-Jul-09 07:22N 43°42' E 007°17'0 0.0
2014-Jul-09 06:22N 43°42' E 007°17'0 0.0
2014-Jul-09 05:28N 43°42' E 007°17'0 0.0
2014-Jul-09 04:28N 43°42' E 007°17'0 0.0
2014-Jul-09 03:28N 43°42' E 007°17'0 0.0
2014-Jul-09 02:22N 43°42' E 007°17'0 0.0
2014-Jul-09 01:28N 43°42' E 007°17'0 0.0
2014-Jul-09 00:28N 43°42' E 007°17'0 0.0
2014-Jul-08 23:10N 43°42' E 007°17'0 0.0
2014-Jul-08 22:22N 43°42' E 007°17'0 0.0
2014-Jul-08 21:28N 43°42' E 007°17'0 0.0
2014-Jul-08 19:28N 43°42' E 007°17'  
Track history (hours):
 
Tides and Currents Weather Stations Pressure Air Temp Water Temp Dewpoint Dewpoint Depression Visibility Wind Speed Wind Dir Waves Ship Positions

Space

Last reported at 2014-Jul-18 18:33 UTC. Time now 2014-Jul-22 09:19 UTC.
Position N 41°26' E 008°53'.

Length 45 m; draft 2.7 m.

Type: Pleasure craft. MMSI: 319917000.

Date/timePositionNaut miles runAvg speedWind from/ knotsBaromVisibWave heightAir tempDewpointWater temp
2014-Jul-18 18:33N 41°26' E 008°53'9 0.9
2014-Jul-18 09:32N 41°33' E 008°46'5 5.4
2014-Jul-18 08:33N 41°38' E 008°49'27 6.8
2014-Jul-18 04:30N 41°60' E 008°26'1212.8
2014-Jul-18 03:33N 42°11' E 008°19'1212.4
2014-Jul-18 02:33N 42°22' E 008°12'1312.5
2014-Jul-18 01:32N 42°34' E 008°06'1312.8
2014-Jul-18 00:33N 42°45' E 007°59'1312.8
2014-Jul-17 23:33N 42°57' E 007°51'1312.9
2014-Jul-17 22:33N 43°08' E 007°43'1312.9
2014-Jul-17 21:32N 43°20' E 007°35'1312.9
2014-Jul-17 20:33N 43°32' E 007°27'11 9.9
2014-Jul-17 19:25N 43°41' E 007°21'0 0.0
2014-Jul-17 17:28N 43°41' E 007°21'0 0.0
2014-Jul-17 16:19N 43°41' E 007°20'0 0.0
2014-Jul-17 14:07N 43°41' E 007°20'0 0.0
2014-Jul-17 13:31N 43°41' E 007°20'1 0.2
2014-Jul-17 10:33N 43°41' E 007°21'3 2.7
2014-Jul-17 09:33N 43°42' E 007°17'0 0.0
2014-Jul-17 08:33N 43°42' E 007°17'0 0.0
2014-Jul-17 07:33N 43°42' E 007°17'0 0.0
2014-Jul-17 06:34N 43°42' E 007°17'0 0.0
2014-Jul-17 05:33N 43°42' E 007°17'0 0.0
2014-Jul-16 18:33N 43°42' E 007°17'0 0.0
2014-Jul-16 17:34N 43°42' E 007°17'0 0.0
2014-Jul-16 16:33N 43°42' E 007°17'0 0.0
2014-Jul-16 15:33N 43°42' E 007°17'0 0.0
2014-Jul-16 14:33N 43°42' E 007°17'6 6.3
2014-Jul-16 13:34N 43°36' E 007°13'1212.0
2014-Jul-16 12:32N 43°28' E 007°01'1312.6
2014-Jul-16 11:33N 43°21' E 006°47'6 6.5
2014-Jul-16 10:33N 43°16' E 006°40'0 0.1
2014-Jul-16 09:31N 43°16' E 006°40'0 0.0
2014-Jul-16 08:31N 43°16' E 006°40'0 0.0
2014-Jul-16 07:31N 43°16' E 006°40'0 0.0
2014-Jul-16 06:28N 43°16' E 006°40'0 0.0
2014-Jul-16 05:31N 43°16' E 006°40'0 0.0
2014-Jul-16 04:31N 43°16' E 006°40'0 0.0
2014-Jul-16 03:31N 43°16' E 006°40'0 0.0
2014-Jul-16 02:25N 43°16' E 006°40'0 0.0
2014-Jul-16 01:25N 43°16' E 006°40'0 0.0
2014-Jul-16 00:31N 43°16' E 006°40'0 0.0
2014-Jul-15 23:25N 43°16' E 006°40'0 0.0
2014-Jul-15 22:31N 43°16' E 006°40'0 0.0
2014-Jul-15 21:25N 43°16' E 006°40'0 0.0
2014-Jul-15 20:25N 43°16' E 006°40'0 0.0
2014-Jul-15 19:07N 43°16' E 006°40'0 0.0
2014-Jul-15 18:25N 43°16' E 006°40'0 0.0
2014-Jul-15 17:25N 43°16' E 006°40'0 0.0
2014-Jul-15 16:25N 43°16' E 006°40'0 0.0
2014-Jul-15 15:31N 43°16' E 006°40'0 0.0
2014-Jul-15 13:07N 43°16' E 006°40'0 0.0
2014-Jul-15 12:13N 43°16' E 006°40'0 0.1
2014-Jul-15 11:31N 43°16' E 006°40'0 0.0
2014-Jul-15 10:25N 43°16' E 006°40'0 0.0
2014-Jul-15 09:31N 43°16' E 006°40'0 0.0
2014-Jul-15 08:31N 43°16' E 006°40'0 0.0
2014-Jul-15 07:31N 43°16' E 006°40'0 0.0
2014-Jul-15 06:31N 43°16' E 006°40'0 0.0
2014-Jul-15 05:31N 43°16' E 006°40'0 0.0
2014-Jul-15 04:31N 43°16' E 006°40'0 0.0
2014-Jul-15 03:28N 43°16' E 006°40'0 0.0
2014-Jul-15 02:28N 43°16' E 006°40'0 0.0
2014-Jul-15 01:31N 43°16' E 006°40'0 0.0
2014-Jul-15 00:31N 43°16' E 006°40'0 0.0
2014-Jul-14 23:31N 43°16' E 006°40'0 0.0
2014-Jul-14 22:31N 43°16' E 006°40'0 0.0
2014-Jul-14 21:31N 43°16' E 006°40'0 0.0
2014-Jul-14 20:28N 43°16' E 006°40'0 0.0
2014-Jul-14 19:28N 43°16' E 006°40'0 0.0
2014-Jul-14 18:25N 43°16' E 006°40'2 2.5
2014-Jul-14 17:33N 43°15' E 006°41'1 1.3
2014-Jul-14 16:29N 43°14' E 006°40'1 0.6
2014-Jul-14 15:25N 43°13' E 006°40'0 0.0
2014-Jul-14 14:31N 43°13' E 006°40'0 0.0
2014-Jul-14 13:28N 43°13' E 006°40'0 0.0
2014-Jul-14 12:25N 43°13' E 006°40'0 0.2
2014-Jul-14 11:16N 43°13' E 006°40'4 5.3
2014-Jul-14 10:33N 43°17' E 006°40'1 0.6
2014-Jul-14 09:17N 43°16' E 006°40'0 0.0
2014-Jul-14 08:26N 43°16' E 006°40'0 0.0
2014-Jul-14 07:29N 43°16' E 006°40'0 0.0
2014-Jul-14 06:23N 43°16' E 006°40'0 0.0
2014-Jul-14 05:32N 43°16' E 006°40'0 0.0
2014-Jul-14 04:32N 43°16' E 006°40'0 0.0
2014-Jul-14 03:32N 43°16' E 006°40'0 0.0
2014-Jul-14 02:26N 43°16' E 006°40'0 0.0
2014-Jul-14 01:32N 43°16' E 006°40'0 0.0
2014-Jul-14 00:32N 43°16' E 006°40'0 0.0
2014-Jul-13 23:32N 43°16' E 006°40'0 0.0
2014-Jul-13 22:32N 43°16' E 006°40'0 0.0
2014-Jul-13 21:32N 43°16' E 006°40'0 0.0
2014-Jul-13 20:32N 43°16' E 006°40'0 0.0
2014-Jul-13 19:32N 43°16' E 006°40'0 0.0
2014-Jul-13 18:32N 43°16' E 006°40'0 0.0
2014-Jul-13 17:32N 43°16' E 006°40'0 0.0
2014-Jul-13 16:32N 43°16' E 006°40'2 2.4
2014-Jul-13 15:29N 43°14' E 006°40'0 0.0
2014-Jul-13 14:32N 43°14' E 006°40'0 0.0
2014-Jul-13 13:29N 43°14' E 006°40'0 0.0
2014-Jul-13 12:29N 43°14' E 006°40'0 0.0
2014-Jul-13 11:26N 43°14' E 006°40'3 3.1
2014-Jul-13 10:33N 43°16' E 006°43'2 2.3
2014-Jul-13 09:32N 43°16' E 006°40'0 0.0
2014-Jul-13 08:32N 43°16' E 006°40'0 0.0
2014-Jul-13 07:32N 43°16' E 006°40'0 0.0
2014-Jul-13 06:26N 43°16' E 006°40'0 0.0
2014-Jul-13 05:32N 43°16' E 006°40'0 0.0
2014-Jul-13 04:29N 43°16' E 006°40'0 0.0
2014-Jul-13 03:32N 43°16' E 006°40'0 0.0
2014-Jul-13 02:32N 43°16' E 006°40'0 0.0
2014-Jul-13 01:32N 43°16' E 006°40'0 0.0
2014-Jul-13 00:32N 43°16' E 006°40'0 0.0
2014-Jul-12 23:32N 43°16' E 006°40'0 0.0
2014-Jul-12 22:32N 43°16' E 006°40'0 0.0
2014-Jul-12 21:29N 43°16' E 006°40'0 0.0
2014-Jul-12 20:32N 43°16' E 006°40'0 0.0
2014-Jul-12 19:32N 43°16' E 006°40'0 0.0
2014-Jul-12 18:33N 43°16' E 006°40'0 0.0
2014-Jul-12 17:32N 43°16' E 006°40'0 0.0
2014-Jul-12 16:33N 43°16' E 006°40'0 0.0
2014-Jul-12 15:32N 43°16' E 006°40'2 1.5
2014-Jul-12 14:33N 43°17' E 006°42'3 0.5
2014-Jul-12 09:18N 43°14' E 006°40'2 2.1
2014-Jul-12 08:27N 43°16' E 006°40'0 0.0
2014-Jul-12 07:30N 43°16' E 006°40'0 0.0
2014-Jul-12 06:33N 43°16' E 006°40'0 0.0
2014-Jul-12 05:33N 43°16' E 006°40'0 0.0
2014-Jul-12 04:32N 43°16' E 006°40'0 0.0
2014-Jul-12 03:33N 43°16' E 006°40'0 0.0
2014-Jul-12 02:32N 43°16' E 006°40'0 0.0
2014-Jul-12 01:33N 43°16' E 006°40'0 0.0
2014-Jul-12 00:33N 43°16' E 006°40'0 0.0
2014-Jul-11 23:32N 43°16' E 006°40'0 0.0
2014-Jul-11 22:32N 43°16' E 006°40'0 0.0
2014-Jul-11 21:32N 43°16' E 006°40'0 0.0
2014-Jul-11 20:32N 43°16' E 006°40'0 0.0
2014-Jul-11 19:32N 43°16' E 006°40'0 0.0
2014-Jul-11 18:33N 43°16' E 006°40'0 0.0
2014-Jul-11 17:32N 43°16' E 006°40'0 0.0
2014-Jul-11 16:32N 43°16' E 006°40'3 2.7
2014-Jul-11 15:33N 43°18' E 006°42'1413.6
2014-Jul-11 14:34N 43°26' E 006°58'1312.9
2014-Jul-11 13:33N 43°35' E 007°10'4 3.4
2014-Jul-11 12:26N 43°39' E 007°11'0 0.0
2014-Jul-11 11:32N 43°39' E 007°11'0 0.0
2014-Jul-11 10:32N 43°39' E 007°11'0 0.0
2014-Jul-11 09:33N 43°39' E 007°11'4 3.8
2014-Jul-11 08:30N 43°36' E 007°08'0 0.0
2014-Jul-11 07:30N 43°36' E 007°08'6 6.2
2014-Jul-11 06:33N 43°38' E 007°15'4 1.8
2014-Jul-11 04:14N 43°42' E 007°19'0 0.0
2014-Jul-11 03:26N 43°42' E 007°19'0 0.0
2014-Jul-11 02:26N 43°42' E 007°19'0 0.0
2014-Jul-11 00:20N 43°42' E 007°19'0 0.0
2014-Jul-10 23:32N 43°42' E 007°19'0 0.0
2014-Jul-10 22:32N 43°42' E 007°19'0 0.0
2014-Jul-10 20:32N 43°42' E 007°19'0 0.0
2014-Jul-10 19:32N 43°42' E 007°19'0 0.0
2014-Jul-10 17:32N 43°42' E 007°19'0 0.0
2014-Jul-10 16:26N 43°42' E 007°19'0 0.0
2014-Jul-10 15:29N 43°42' E 007°19'0 0.0
2014-Jul-10 13:08N 43°42' E 007°19'0 0.0
2014-Jul-10 12:30N 43°42' E 007°19'0 0.0
2014-Jul-10 11:33N 43°42' E 007°19'0 0.0
2014-Jul-10 10:33N 43°42' E 007°19'1 1.1
2014-Jul-10 09:28N 43°42' E 007°17'0 0.0
2014-Jul-10 08:28N 43°42' E 007°17'0 0.0
2014-Jul-10 07:28N 43°42' E 007°17'0 0.0
2014-Jul-10 06:28N 43°42' E 007°17'0 0.0
2014-Jul-10 05:28N 43°42' E 007°17'0 0.0
2014-Jul-10 04:22N 43°42' E 007°17'0 0.0
2014-Jul-10 03:16N 43°42' E 007°17'0 0.0
2014-Jul-10 02:22N 43°42' E 007°17'0 0.0
2014-Jul-10 01:28N 43°42' E 007°17'0 0.0
2014-Jul-10 00:22N 43°42' E 007°17'0 0.0
2014-Jul-09 23:28N 43°42' E 007°17'0 0.0
2014-Jul-09 22:22N 43°42' E 007°17'0 0.0
2014-Jul-09 21:28N 43°42' E 007°17'0 0.0
2014-Jul-09 20:28N 43°42' E 007°17'0 0.0
2014-Jul-09 19:28N 43°42' E 007°17'0 0.0
2014-Jul-09 18:22N 43°42' E 007°17'0 0.0
2014-Jul-09 17:28N 43°42' E 007°17'0 0.0
2014-Jul-09 16:28N 43°42' E 007°17'0 0.0
2014-Jul-09 10:28N 43°42' E 007°17'0 0.0
2014-Jul-09 09:22N 43°42' E 007°17'0 0.0
2014-Jul-09 07:22N 43°42' E 007°17'0 0.0
2014-Jul-09 06:22N 43°42' E 007°17'0 0.0
2014-Jul-09 05:28N 43°42' E 007°17'0 0.0
2014-Jul-09 04:28N 43°42' E 007°17'0 0.0
2014-Jul-09 03:28N 43°42' E 007°17'0 0.0
2014-Jul-09 02:22N 43°42' E 007°17'0 0.0
2014-Jul-09 01:28N 43°42' E 007°17'0 0.0
2014-Jul-09 00:28N 43°42' E 007°17'0 0.0
2014-Jul-08 23:10N 43°42' E 007°17'0 0.0
2014-Jul-08 22:22N 43°42' E 007°17'0 0.0
2014-Jul-08 21:28N 43°42' E 007°17'0 0.0
2014-Jul-08 19:28N 43°42' E 007°17'  

Dump ship's entire track history